Time;durP1;ratioP1;P1;durP2;ratioP2;P2;SDS_P1;SDS_P2;PMS_P1;PMS_P2;Temp;Humidity;BMP_temperature;BMP_pressure;BME280_temperature;BME280_humidity;BME280_pressure;Samples;Min_cycle;Max_cycle;Signal;HPM_P1;HPM_P2
2023/09/13 00:00:38;;;;;;;8.05;2.58;;;17.60;99.90;;;;;;5034902;28;20034;-66
2023/09/13 00:03:04;;;;;;;7.88;2.60;;;17.70;99.90;;;;;;5034647;28;20383;-65
2023/09/13 00:05:30;;;;;;;10.88;3.42;;;17.60;99.90;;;;;;5033612;28;20069;-65
2023/09/13 00:07:56;;;;;;;6.85;2.28;;;17.60;99.90;;;;;;5035100;28;20045;-65
2023/09/13 00:10:21;;;;;;;9.80;2.67;;;17.70;99.90;;;;;;5034022;28;20445;-65
2023/09/13 00:12:47;;;;;;;6.95;2.20;;;17.60;99.90;;;;;;5034793;28;20115;-65
2023/09/13 00:15:13;;;;;;;5.40;2.10;;;17.60;99.90;;;;;;5033482;28;20049;-65
2023/09/13 00:17:38;;;;;;;10.57;2.72;;;17.60;99.90;;;;;;5032283;28;20041;-65
2023/09/13 00:20:05;;;;;;;9.52;2.53;;;17.60;99.90;;;;;;5035077;28;20042;-65
2023/09/13 00:22:31;;;;;;;7.55;2.47;;;17.60;99.90;;;;;;5033193;28;20510;-65
2023/09/13 00:24:56;;;;;;;9.60;2.42;;;17.60;99.90;;;;;;5032966;28;20045;-65
2023/09/13 00:27:22;;;;;;;8.85;3.03;;;17.60;99.90;;;;;;5033368;28;20056;-65
2023/09/13 00:29:49;;;;;;;10.13;2.65;;;17.60;99.90;;;;;;5033631;28;20087;-65
2023/09/13 00:32:14;;;;;;;9.90;2.85;;;17.60;99.90;;;;;;5017023;28;20045;-65
2023/09/13 00:34:40;;;;;;;8.45;2.65;;;17.60;99.90;;;;;;5034179;28;20466;-65
2023/09/13 00:37:06;;;;;;;10.20;2.40;;;17.60;99.90;;;;;;5015708;28;20038;-66
2023/09/13 00:39:31;;;;;;;7.80;2.28;;;17.60;99.90;;;;;;5032282;28;20041;-65
2023/09/13 00:41:58;;;;;;;6.75;2.53;;;17.60;99.90;;;;;;5033336;28;20084;-65
2023/09/13 00:44:24;;;;;;;6.75;2.67;;;17.60;99.90;;;;;;5033507;28;20045;-65
2023/09/13 00:46:49;;;;;;;6.47;2.45;;;17.60;99.90;;;;;;5034077;28;20042;-66
2023/09/13 00:49:15;;;;;;;9.32;2.47;;;17.50;99.90;;;;;;5033912;28;20056;-65
2023/09/13 00:51:41;;;;;;;8.45;2.50;;;17.50;99.90;;;;;;5031862;28;20052;-65
2023/09/13 00:54:09;;;;;;;6.13;2.30;;;17.50;99.90;;;;;;5036204;28;20512;-65
2023/09/13 00:56:36;;;;;;;7.53;2.60;;;17.50;99.90;;;;;;5052674;28;20128;-65
2023/09/13 00:59:02;;;;;;;6.47;2.58;;;17.50;99.90;;;;;;5052227;28;20045;-65
2023/09/13 01:01:28;;;;;;;8.98;2.15;;;17.40;99.90;;;;;;5035716;28;20083;-65
2023/09/13 01:03:55;;;;;;;5.35;1.75;;;17.50;99.90;;;;;;5052513;28;20124;-65
2023/09/13 01:06:21;;;;;;;13.82;2.25;;;17.40;99.90;;;;;;5020528;28;20125;-65
2023/09/13 01:08:47;;;;;;;10.23;2.22;;;17.50;99.90;;;;;;5012739;28;20483;-65
2023/09/13 01:11:13;;;;;;;6.63;2.10;;;17.40;99.90;;;;;;5029344;28;20058;-65
2023/09/13 01:13:39;;;;;;;7.07;1.67;;;17.40;99.90;;;;;;5011928;28;20048;-65
2023/09/13 01:16:19;;;;;;;10.18;2.83;;;17.40;99.90;;;;;;5014096;28;20038;-65
2023/09/13 01:19:17;;;;;;;8.60;2.50;;;17.40;99.90;;;;;;5012448;28;20042;-65
2023/09/13 01:22:03;;;;;;;6.63;2.70;;;17.40;99.90;;;;;;5014008;28;20057;-65
2023/09/13 01:25:07;;;;;;;5.75;1.80;;;17.40;99.90;;;;;;4992198;28;20483;-65
2023/09/13 01:27:49;;;;;;;4.88;1.40;;;17.40;99.90;;;;;;4961266;28;20491;-65
2023/09/13 01:30:16;;;;;;;5.43;1.88;;;17.40;99.90;;;;;;4972007;28;20455;-65
2023/09/13 01:32:46;;;;;;;5.40;1.80;;;17.30;99.90;;;;;;4991363;28;20082;-66
2023/09/13 01:35:12;;;;;;;6.28;1.52;;;17.40;99.90;;;;;;5044643;28;20471;-65
2023/09/13 01:37:38;;;;;;;7.72;1.67;;;17.40;99.90;;;;;;5012161;28;20129;-65
2023/09/13 01:40:06;;;;;;;8.45;2.03;;;17.30;99.90;;;;;;5044754;28;20126;-65
2023/09/13 01:42:33;;;;;;;6.35;1.98;;;17.40;99.90;;;;;;5012100;28;20061;-65
2023/09/13 01:44:59;;;;;;;6.72;1.40;;;17.30;99.90;;;;;;5012705;28;20427;-65
2023/09/13 01:47:27;;;;;;;8.32;2.45;;;17.40;99.90;;;;;;5030755;28;20045;-65
2023/09/13 01:49:54;;;;;;;3.78;1.40;;;17.40;99.90;;;;;;4997551;28;20081;-65
2023/09/13 01:52:20;;;;;;;6.75;1.90;;;17.40;99.90;;;;;;5031464;28;20099;-65
2023/09/13 01:54:45;;;;;;;7.55;1.95;;;17.30;99.90;;;;;;5034031;28;20453;-65
2023/09/13 01:57:11;;;;;;;5.88;1.90;;;17.40;99.90;;;;;;5034863;28;20045;-65
2023/09/13 01:59:37;;;;;;;5.68;2.08;;;17.40;99.90;;;;;;5034876;28;20045;-65
2023/09/13 02:02:02;;;;;;;7.47;2.17;;;17.40;99.90;;;;;;5034341;28;20083;-65
2023/09/13 02:04:32;;;;;;;6.35;1.92;;;17.30;99.90;;;;;;5034230;28;20041;-65
2023/09/13 02:06:59;;;;;;;6.22;1.73;;;17.30;99.90;;;;;;5018875;28;20098;-65
2023/09/13 02:09:25;;;;;;;5.90;1.80;;;17.30;99.90;;;;;;5033918;28;20045;-65
2023/09/13 02:11:51;;;;;;;18.58;2.35;;;17.30;99.90;;;;;;5034846;28;20060;-65
2023/09/13 02:14:16;;;;;;;7.85;1.85;;;17.30;99.90;;;;;;5052037;28;20040;-65
2023/09/13 02:16:42;;;;;;;5.45;2.53;;;17.30;99.90;;;;;;5033834;28;20052;-65
2023/09/13 02:19:08;;;;;;;5.57;2.38;;;17.20;99.90;;;;;;5034507;28;20386;-65
2023/09/13 02:21:34;;;;;;;9.00;2.05;;;17.30;99.90;;;;;;5034474;28;20041;-65
2023/09/13 02:24:00;;;;;;;10.32;2.40;;;17.20;99.90;;;;;;5033879;28;20036;-65
2023/09/13 02:26:26;;;;;;;7.30;2.20;;;17.20;99.90;;;;;;5034345;28;20048;-65
2023/09/13 02:28:52;;;;;;;5.53;2.10;;;17.20;99.90;;;;;;5034471;28;20044;-65
2023/09/13 02:31:26;;;;;;;7.57;2.55;;;17.20;99.90;;;;;;5033529;28;20128;-65
2023/09/13 02:33:53;;;;;;;6.10;2.10;;;17.20;99.90;;;;;;5034229;28;20056;-65
2023/09/13 02:36:18;;;;;;;8.93;2.72;;;17.10;99.90;;;;;;5033601;28;20486;-65
2023/09/13 02:38:44;;;;;;;5.97;2.28;;;17.10;99.90;;;;;;5033864;28;20051;-65
2023/09/13 02:41:10;;;;;;;7.75;2.63;;;17.10;99.90;;;;;;5034106;28;20072;-65
2023/09/13 02:43:36;;;;;;;9.13;2.70;;;17.10;99.90;;;;;;5033435;28;20452;-65
2023/09/13 02:46:02;;;;;;;7.35;2.53;;;17.00;99.90;;;;;;5034587;28;20060;-65
2023/09/13 02:48:29;;;;;;;7.07;2.17;;;17.00;99.90;;;;;;5033708;28;20045;-65
2023/09/13 02:50:54;;;;;;;10.98;2.78;;;16.90;99.90;;;;;;5033866;28;20437;-65
2023/09/13 02:53:20;;;;;;;7.50;2.10;;;16.90;99.90;;;;;;5050965;28;20048;-66
2023/09/13 02:55:46;;;;;;;8.60;2.17;;;16.80;99.90;;;;;;5030480;28;20050;-66
2023/09/13 02:58:12;;;;;;;6.63;2.20;;;16.80;99.90;;;;;;5030719;28;20054;-66
2023/09/13 03:00:42;;;;;;;10.20;2.25;;;16.70;99.90;;;;;;5031900;28;20037;-66
2023/09/13 03:03:08;;;;;;;8.60;2.67;;;16.70;99.90;;;;;;5037973;28;20073;-66
2023/09/13 03:05:33;;;;;;;9.90;2.28;;;16.50;99.90;;;;;;5036445;28;20037;-66
2023/09/13 03:08:00;;;;;;;8.52;2.85;;;16.50;99.90;;;;;;5037481;28;20053;-66
2023/09/13 03:10:27;;;;;;;8.15;2.20;;;16.50;99.90;;;;;;5037221;28;20099;-66
2023/09/13 03:12:52;;;;;;;5.93;2.13;;;16.40;99.90;;;;;;5020304;28;20476;-66
2023/09/13 03:15:18;;;;;;;7.13;2.13;;;16.40;99.90;;;;;;5037153;28;20069;-66
2023/09/13 03:17:44;;;;;;;17.25;2.55;;;16.40;99.90;;;;;;5038519;28;20045;-66
2023/09/13 03:20:10;;;;;;;9.57;3.28;;;16.40;99.90;;;;;;5037487;28;20030;-66
2023/09/13 03:22:35;;;;;;;9.57;2.67;;;16.30;99.90;;;;;;5038094;28;20377;-67
2023/09/13 03:25:02;;;;;;;9.25;2.72;;;16.20;99.90;;;;;;5037593;28;20128;-67
2023/09/13 03:27:28;;;;;;;11.80;3.30;;;16.20;99.90;;;;;;5036044;28;20049;-68
2023/09/13 03:29:53;;;;;;;9.93;3.25;;;16.20;99.90;;;;;;5020692;28;20158;-70
2023/09/13 03:32:19;;;;;;;7.35;2.47;;;16.20;99.90;;;;;;5036917;28;20049;-70
2023/09/13 03:34:45;;;;;;;10.98;2.50;;;16.20;99.90;;;;;;5036286;28;20041;-70
2023/09/13 03:37:10;;;;;;;11.50;2.58;;;16.10;99.90;;;;;;5037195;28;20045;-70
2023/09/13 03:39:36;;;;;;;8.10;2.70;;;16.10;99.90;;;;;;5036268;28;20117;-70
2023/09/13 03:42:02;;;;;;;9.73;2.95;;;16.00;99.90;;;;;;5037216;28;20042;-69
2023/09/13 03:44:28;;;;;;;14.00;3.63;;;15.90;99.90;;;;;;5036285;28;20045;-69
2023/09/13 03:46:55;;;;;;;12.18;2.70;;;15.90;99.90;;;;;;5019828;28;20045;-68
2023/09/13 03:49:21;;;;;;;8.55;2.72;;;15.80;99.90;;;;;;5037143;28;20049;-68
2023/09/13 03:51:47;;;;;;;8.80;2.78;;;15.80;99.90;;;;;;5036722;28;20558;-68
2023/09/13 03:54:13;;;;;;;9.77;2.35;;;15.80;99.90;;;;;;5041627;28;20053;-69
2023/09/13 03:56:38;;;;;;;6.28;2.67;;;15.80;99.90;;;;;;5040288;28;20084;-69
2023/09/13 03:59:04;;;;;;;10.57;2.58;;;15.70;99.90;;;;;;5040143;28;20087;-70
2023/09/13 04:01:30;;;;;;;12.00;2.10;;;15.70;99.90;;;;;;5038729;28;20052;-70
2023/09/13 04:03:56;;;;;;;10.63;2.05;;;15.60;99.90;;;;;;5040192;28;20112;-69
2023/09/13 04:06:22;;;;;;;8.48;2.70;;;15.60;99.90;;;;;;5040117;28;20183;-68
2023/09/13 04:08:47;;;;;;;7.30;2.17;;;15.50;99.90;;;;;;5056434;28;20041;-68
2023/09/13 04:11:13;;;;;;;7.60;2.33;;;15.60;99.90;;;;;;5039918;28;20513;-68
2023/09/13 04:13:39;;;;;;;12.10;3.20;;;15.50;99.90;;;;;;5035762;28;20052;-68
2023/09/13 04:16:06;;;;;;;11.55;2.53;;;15.50;99.90;;;;;;5035350;28;20044;-68
2023/09/13 04:18:32;;;;;;;13.50;2.50;;;15.50;99.90;;;;;;5037151;28;20041;-69
2023/09/13 04:20:58;;;;;;;8.65;2.30;;;15.40;99.90;;;;;;5036793;28;20383;-68
2023/09/13 04:23:23;;;;;;;7.57;2.25;;;15.40;99.90;;;;;;5054227;28;20036;-68
2023/09/13 04:25:49;;;;;;;7.53;2.58;;;15.40;99.90;;;;;;5037223;28;20126;-68
2023/09/13 04:28:15;;;;;;;10.85;2.67;;;15.40;99.90;;;;;;5035614;28;20037;-68
2023/09/13 04:30:41;;;;;;;12.65;2.83;;;15.40;99.90;;;;;;5035097;28;20498;-67
2023/09/13 04:33:07;;;;;;;6.20;2.25;;;15.40;99.90;;;;;;5036420;28;20502;-67
2023/09/13 04:35:34;;;;;;;12.85;3.42;;;15.40;99.90;;;;;;5036386;28;20048;-67
2023/09/13 04:38:00;;;;;;;12.48;3.22;;;15.40;99.90;;;;;;5035434;28;20063;-66
2023/09/13 04:40:26;;;;;;;14.40;2.80;;;15.40;99.90;;;;;;5036556;28;20140;-66
2023/09/13 04:43:15;;;;;;;12.98;3.40;;;15.40;99.90;;;;;;5035342;28;20501;-66
2023/09/13 04:45:41;;;;;;;7.85;2.53;;;15.40;99.90;;;;;;5018730;28;20064;-66
2023/09/13 04:48:07;;;;;;;8.68;2.80;;;15.40;99.90;;;;;;5036325;28;20068;-66
2023/09/13 04:50:32;;;;;;;10.05;2.72;;;15.40;99.90;;;;;;5052610;28;20040;-67
2023/09/13 04:52:58;;;;;;;7.47;2.95;;;15.30;99.90;;;;;;5036780;28;20083;-66
2023/09/13 04:55:26;;;;;;;7.70;2.70;;;15.30;99.90;;;;;;5032634;28;20064;-67
2023/09/13 04:57:52;;;;;;;7.03;2.35;;;15.20;99.90;;;;;;5032045;28;20084;-67
2023/09/13 05:00:18;;;;;;;10.02;2.50;;;15.10;99.90;;;;;;5016333;28;20075;-67
2023/09/13 05:02:44;;;;;;;8.95;3.30;;;15.10;99.90;;;;;;5032220;28;20045;-67
2023/09/13 05:05:10;;;;;;;12.27;2.88;;;14.90;99.90;;;;;;5015392;28;20044;-67
2023/09/13 05:07:35;;;;;;;10.65;2.28;;;14.90;99.90;;;;;;5032648;28;20045;-67
2023/09/13 05:10:01;;;;;;;12.38;3.28;;;14.80;99.90;;;;;;5033355;28;20049;-66
2023/09/13 05:12:27;;;;;;;11.52;3.58;;;14.80;99.90;;;;;;5031724;28;20040;-67
2023/09/13 05:14:53;;;;;;;10.57;3.28;;;14.80;99.90;;;;;;5032381;28;20111;-66
2023/09/13 05:17:18;;;;;;;12.77;3.38;;;14.80;99.90;;;;;;5032252;28;20399;-67
2023/09/13 05:19:44;;;;;;;9.82;2.50;;;14.70;99.90;;;;;;5031678;28;20120;-67
2023/09/13 05:22:10;;;;;;;8.98;2.60;;;14.70;99.90;;;;;;5032845;28;20103;-67
2023/09/13 05:24:35;;;;;;;11.05;4.03;;;14.70;99.90;;;;;;5031800;28;20554;-67
2023/09/13 05:27:01;;;;;;;13.02;3.15;;;14.60;99.90;;;;;;5031879;28;20049;-67
2023/09/13 05:29:27;;;;;;;13.32;3.42;;;14.60;99.90;;;;;;5033704;28;20453;-67
2023/09/13 05:31:53;;;;;;;11.30;3.70;;;14.60;99.90;;;;;;5032374;28;20068;-66
2023/09/13 05:34:18;;;;;;;7.50;3.55;;;14.60;99.90;;;;;;5031564;28;20044;-67
2023/09/13 05:36:44;;;;;;;13.18;4.35;;;14.60;99.90;;;;;;5033372;28;20046;-67
2023/09/13 05:39:10;;;;;;;11.25;3.47;;;14.50;99.90;;;;;;5031682;28;20383;-66
2023/09/13 05:41:37;;;;;;;12.65;3.83;;;14.60;99.90;;;;;;5031730;28;20601;-67
2023/09/13 05:44:03;;;;;;;15.35;4.55;;;14.60;99.90;;;;;;5032571;28;20057;-67
2023/09/13 05:46:29;;;;;;;8.63;3.58;;;14.50;99.90;;;;;;5030795;28;20467;-67
2023/09/13 05:48:54;;;;;;;12.02;3.80;;;14.60;99.90;;;;;;5032108;28;20394;-67
2023/09/13 05:51:20;;;;;;;9.30;3.13;;;14.50;99.90;;;;;;5015633;28;20052;-67
2023/09/13 05:53:46;;;;;;;8.02;2.50;;;14.60;99.90;;;;;;5015169;28;20041;-67
2023/09/13 05:56:12;;;;;;;8.25;2.97;;;14.60;99.90;;;;;;5035104;28;20080;-66
2023/09/13 05:58:43;;;;;;;12.82;3.08;;;14.60;99.90;;;;;;5018686;28;20047;-66
2023/09/13 06:01:09;;;;;;;9.52;3.13;;;14.70;99.90;;;;;;5034486;28;20141;-66
2023/09/13 06:03:35;;;;;;;11.35;3.70;;;14.60;99.90;;;;;;5034934;28;20068;-66
2023/09/13 06:06:00;;;;;;;10.10;3.50;;;14.70;99.90;;;;;;5035326;28;20076;-66
2023/09/13 06:08:26;;;;;;;12.75;3.72;;;14.60;99.90;;;;;;5034179;28;20049;-65
2023/09/13 06:10:52;;;;;;;10.32;3.67;;;14.60;99.90;;;;;;5018543;28;20390;-66
2023/09/13 06:13:17;;;;;;;11.63;2.95;;;14.70;99.90;;;;;;5034340;28;20510;-65
2023/09/13 06:15:43;;;;;;;10.23;3.25;;;14.70;99.90;;;;;;5034097;28;20049;-66
2023/09/13 06:18:09;;;;;;;8.35;2.90;;;14.70;99.90;;;;;;5035095;28;20051;-66
2023/09/13 06:20:34;;;;;;;6.43;2.47;;;14.70;99.90;;;;;;5035363;28;20474;-65
2023/09/13 06:23:01;;;;;;;9.05;2.28;;;14.80;99.90;;;;;;5051908;28;20115;-66
2023/09/13 06:25:26;;;;;;;8.48;2.28;;;14.80;99.90;;;;;;5034449;28;20045;-66
2023/09/13 06:27:52;;;;;;;8.07;2.50;;;14.80;99.90;;;;;;5034777;28;20112;-65
2023/09/13 06:30:19;;;;;;;10.07;1.85;;;14.80;99.90;;;;;;5033633;28;20099;-66
2023/09/13 06:32:45;;;;;;;6.30;1.95;;;14.90;99.90;;;;;;5034317;28;20053;-66
2023/09/13 06:35:12;;;;;;;7.10;1.88;;;14.80;99.90;;;;;;5034274;28;20040;-66
2023/09/13 06:37:38;;;;;;;9.93;2.85;;;14.80;99.90;;;;;;5032766;28;20088;-65
2023/09/13 06:40:05;;;;;;;10.43;1.95;;;14.80;99.90;;;;;;5034905;28;20452;-65
2023/09/13 06:42:30;;;;;;;7.97;2.05;;;14.80;99.90;;;;;;5033331;28;20047;-65
2023/09/13 06:44:57;;;;;;;6.38;1.70;;;14.80;99.90;;;;;;5034458;28;20040;-65
2023/09/13 06:47:23;;;;;;;7.32;1.75;;;14.80;99.90;;;;;;5034278;28;20045;-64
2023/09/13 06:49:49;;;;;;;5.65;2.30;;;14.80;99.90;;;;;;5033690;28;20131;-65
2023/09/13 06:52:14;;;;;;;11.15;2.20;;;14.90;99.90;;;;;;5017998;28;20049;-65
2023/09/13 06:54:40;;;;;;;9.73;1.92;;;14.90;99.90;;;;;;5030676;28;20053;-65
2023/09/13 06:57:08;;;;;;;8.43;2.15;;;14.90;99.90;;;;;;5029655;28;20402;-65
2023/09/13 06:59:34;;;;;;;6.05;1.65;;;14.80;99.90;;;;;;5030781;28;20054;-65
2023/09/13 07:02:00;;;;;;;5.07;1.33;;;14.80;99.90;;;;;;5030930;28;20103;-65
2023/09/13 07:04:26;;;;;;;5.82;1.70;;;14.80;99.90;;;;;;5030415;28;20046;-67
2023/09/13 07:06:51;;;;;;;7.85;1.80;;;14.90;99.90;;;;;;5014350;28;20075;-65
2023/09/13 07:09:17;;;;;;;5.95;1.58;;;14.90;99.90;;;;;;5031762;28;20445;-66
2023/09/13 07:11:43;;;;;;;6.85;1.60;;;14.90;99.90;;;;;;5030286;28;20038;-65
2023/09/13 07:14:09;;;;;;;5.70;1.63;;;14.90;99.90;;;;;;5031396;28;20048;-65
2023/09/13 07:16:35;;;;;;;5.68;1.52;;;14.90;99.90;;;;;;5030962;28;20045;-65
2023/09/13 07:19:03;;;;;;;5.22;1.60;;;14.90;99.90;;;;;;5030358;28;20033;-65
2023/09/13 07:21:29;;;;;;;6.95;2.08;;;14.90;99.90;;;;;;5030136;28;20509;-65
2023/09/13 07:23:55;;;;;;;4.55;1.42;;;14.90;99.90;;;;;;5031023;28;20121;-65
2023/09/13 07:26:21;;;;;;;6.43;1.83;;;14.90;99.90;;;;;;5029719;28;20469;-65
2023/09/13 07:28:46;;;;;;;4.82;1.45;;;14.90;99.90;;;;;;5014025;28;20049;-65
2023/09/13 07:31:12;;;;;;;6.10;1.65;;;14.90;99.90;;;;;;5030548;28;20418;-65
2023/09/13 07:33:38;;;;;;;6.72;2.13;;;14.90;99.90;;;;;;5027623;28;20037;-65
2023/09/13 07:36:04;;;;;;;6.05;2.10;;;15.00;99.90;;;;;;5028639;28;20046;-64
2023/09/13 07:38:29;;;;;;;4.63;1.80;;;15.00;99.90;;;;;;5027873;28;20056;-65
2023/09/13 07:40:55;;;;;;;5.32;1.70;;;15.10;99.90;;;;;;5028812;28;20033;-64
2023/09/13 07:43:21;;;;;;;8.30;1.98;;;15.20;99.90;;;;;;5029424;28;20045;-65
2023/09/13 07:45:46;;;;;;;7.50;2.03;;;15.20;99.90;;;;;;5026952;28;20415;-64
2023/09/13 07:48:12;;;;;;;8.65;2.63;;;15.30;99.90;;;;;;5028428;28;20053;-64
2023/09/13 07:50:42;;;;;;;9.65;2.25;;;15.30;99.90;;;;;;5031733;28;20064;-64
2023/09/13 07:53:12;;;;;;;8.90;2.65;;;15.40;99.90;;;;;;5031544;28;20057;-64
2023/09/13 07:55:39;;;;;;;7.53;2.60;;;15.50;99.90;;;;;;5015151;28;20068;-64
2023/09/13 07:58:06;;;;;;;9.88;2.50;;;15.50;99.90;;;;;;5030454;28;20053;-64
2023/09/13 08:00:32;;;;;;;10.30;2.40;;;15.70;99.90;;;;;;5029950;28;20104;-64
2023/09/13 08:02:59;;;;;;;6.50;2.42;;;15.70;99.90;;;;;;5031750;28;20041;-64
2023/09/13 08:05:25;;;;;;;8.88;2.92;;;15.70;99.90;;;;;;5030964;28;20079;-64
2023/09/13 08:07:53;;;;;;;10.18;2.97;;;15.70;99.90;;;;;;5029957;28;20073;-64
2023/09/13 08:10:18;;;;;;;12.68;3.38;;;15.70;99.90;;;;;;5018738;28;20042;-65
2023/09/13 08:12:44;;;;;;;8.07;2.85;;;15.70;99.90;;;;;;5028077;28;20056;-64
2023/09/13 08:15:10;;;;;;;10.48;4.20;;;15.70;99.90;;;;;;5030429;28;20473;-65
2023/09/13 08:17:36;;;;;;;14.20;3.58;;;15.60;99.90;;;;;;5029285;28;20037;-64
2023/09/13 08:20:08;;;;;;;11.40;3.25;;;15.60;99.90;;;;;;5026610;28;20402;-64
2023/09/13 08:22:35;;;;;;;11.60;2.70;;;15.60;99.90;;;;;;5012296;28;20041;-64
2023/09/13 08:25:00;;;;;;;16.77;3.72;;;15.60;99.90;;;;;;5030746;28;20095;-64
2023/09/13 08:27:26;;;;;;;10.82;3.45;;;15.50;99.90;;;;;;5030516;28;20045;-64
2023/09/13 08:29:53;;;;;;;11.65;3.30;;;15.60;99.90;;;;;;5029681;28;20049;-64
2023/09/13 08:32:19;;;;;;;16.17;3.60;;;15.50;99.90;;;;;;5030149;28;20527;-64
2023/09/13 08:34:44;;;;;;;8.40;3.10;;;15.60;99.90;;;;;;5029962;28;20045;-64
2023/09/13 08:37:10;;;;;;;8.20;3.17;;;15.60;99.90;;;;;;5029585;28;20040;-64
2023/09/13 08:40:16;;;;;;;9.30;3.08;;;15.70;99.90;;;;;;5028372;28;20034;-64
2023/09/13 08:42:44;;;;;;;10.43;3.05;;;15.80;99.90;;;;;;5009836;28;20108;-65
2023/09/13 08:45:12;;;;;;;11.55;3.78;;;15.80;99.90;;;;;;5010506;28;20042;-64
2023/09/13 08:47:42;;;;;;;9.48;3.05;;;15.90;99.90;;;;;;5010699;28;20072;-65
2023/09/13 08:50:09;;;;;;;10.07;2.97;;;15.90;99.90;;;;;;5027162;28;20037;-64
2023/09/13 08:52:35;;;;;;;9.30;4.03;;;15.90;99.90;;;;;;5011583;28;20077;-65
2023/09/13 08:55:04;;;;;;;10.23;4.18;;;15.70;99.90;;;;;;5013777;28;20057;-64
2023/09/13 08:57:33;;;;;;;8.00;3.30;;;15.60;99.90;;;;;;5028581;28;20041;-65
2023/09/13 08:59:58;;;;;;;8.20;3.42;;;15.50;99.90;;;;;;5030106;28;20682;-65
2023/09/13 09:02:26;;;;;;;9.48;3.90;;;15.30;99.90;;;;;;5029858;28;20041;-64
2023/09/13 09:04:52;;;;;;;7.30;3.03;;;15.20;99.90;;;;;;5029462;28;20049;-65
2023/09/13 09:07:19;;;;;;;9.25;3.10;;;15.10;99.90;;;;;;5013889;28;20382;-65
2023/09/13 09:09:46;;;;;;;7.68;3.22;;;15.10;99.90;;;;;;5012993;28;20041;-64
2023/09/13 09:12:18;;;;;;;9.57;3.03;;;15.00;99.90;;;;;;5012905;28;20116;-64
2023/09/13 09:14:46;;;;;;;8.38;2.80;;;14.90;99.90;;;;;;5030131;28;20111;-65
2023/09/13 09:17:14;;;;;;;8.40;3.05;;;14.90;99.90;;;;;;5028816;28;20042;-65
2023/09/13 09:19:40;;;;;;;8.40;2.72;;;14.90;99.90;;;;;;5027693;28;20172;-65
2023/09/13 09:22:08;;;;;;;7.93;2.95;;;14.90;99.90;;;;;;5029141;28;20079;-65
2023/09/13 09:24:34;;;;;;;7.85;3.45;;;14.90;99.90;;;;;;5028809;28;20073;-66
2023/09/13 09:27:00;;;;;;;8.18;3.22;;;15.00;99.90;;;;;;5029652;28;20473;-67
2023/09/13 09:29:39;;;;;;;9.50;3.17;;;15.00;99.90;;;;;;5029574;28;20045;-65
2023/09/13 09:32:08;;;;;;;6.32;2.92;;;15.10;99.90;;;;;;5029236;28;20048;-66
2023/09/13 09:34:38;;;;;;;8.07;2.72;;;15.20;99.90;;;;;;5029375;28;20156;-66
2023/09/13 09:37:07;;;;;;;7.80;2.80;;;15.20;99.90;;;;;;5029731;28;20130;-66
2023/09/13 09:39:42;;;;;;;8.13;2.83;;;15.40;99.90;;;;;;5019083;28;20099;-66
2023/09/13 09:42:15;;;;;;;6.30;2.08;;;15.50;99.90;;;;;;5020483;28;20042;-66
2023/09/13 09:44:41;;;;;;;9.57;2.83;;;15.60;99.90;;;;;;4993012;28;20116;-66
2023/09/13 09:47:11;;;;;;;7.18;2.88;;;15.70;99.90;;;;;;5008342;28;20577;-66
2023/09/13 09:49:37;;;;;;;11.82;4.35;;;15.80;99.90;;;;;;5013973;28;20064;-66
2023/09/13 09:52:03;;;;;;;6.75;2.60;;;15.90;99.90;;;;;;5012802;28;20068;-66
2023/09/13 09:54:30;;;;;;;8.80;2.83;;;16.00;99.90;;;;;;5031932;28;20150;-66
2023/09/13 09:56:55;;;;;;;7.00;3.33;;;16.20;99.90;;;;;;5034379;28;20090;-67
2023/09/13 09:59:26;;;;;;;7.10;3.67;;;16.20;99.90;;;;;;5033108;28;20413;-67
2023/09/13 10:01:59;;;;;;;7.68;2.72;;;16.30;99.90;;;;;;5034884;28;20049;-66
2023/09/13 10:04:25;;;;;;;12.57;3.47;;;16.50;99.90;;;;;;5015023;28;20045;-69
2023/09/13 10:06:59;;;;;;;6.82;3.47;;;16.60;99.90;;;;;;5032363;28;20029;-68
2023/09/13 10:09:39;;;;;;;8.88;3.33;;;16.80;99.90;;;;;;5022362;28;20478;-67
2023/09/13 10:12:09;;;;;;;8.30;3.22;;;16.80;99.90;;;;;;5033898;28;20056;-67
2023/09/13 10:14:36;;;;;;;9.90;3.22;;;16.80;99.90;;;;;;5033877;28;20083;-66
2023/09/13 10:17:06;;;;;;;8.10;2.45;;;16.90;99.90;;;;;;5035132;28;20110;-67
2023/09/13 10:19:33;;;;;;;7.43;2.40;;;16.90;99.90;;;;;;5052132;28;20033;-69
2023/09/13 10:22:00;;;;;;;7.35;2.53;;;16.90;99.90;;;;;;5017563;28;20047;-68
2023/09/13 10:24:38;;;;;;;9.18;2.47;;;17.00;99.90;;;;;;5034124;28;20069;-68
2023/09/13 10:27:07;;;;;;;6.80;2.22;;;17.10;99.90;;;;;;5034934;28;20067;-68
2023/09/13 10:29:57;;;;;;;5.97;2.08;;;17.20;99.90;;;;;;5033836;28;20045;-69
2023/09/13 10:32:28;;;;;;;8.95;2.72;;;17.20;99.90;;;;;;5034338;28;20509;-69
2023/09/13 10:34:58;;;;;;;7.93;2.22;;;17.20;99.90;;;;;;5033982;28;20511;-69
2023/09/13 10:37:38;;;;;;;7.35;2.40;;;17.20;99.90;;;;;;5051843;28;20568;-69
2023/09/13 10:40:23;;;;;;;4.13;1.70;;;17.20;99.90;;;;;;5034143;28;20041;-69
2023/09/13 10:42:49;;;;;;;6.20;2.15;;;17.20;99.90;;;;;;5030304;28;20095;-68
2023/09/13 10:45:19;;;;;;;8.25;2.83;;;17.00;99.90;;;;;;5028867;28;20401;-68
2023/09/13 10:47:50;;;;;;;8.73;2.50;;;17.00;99.90;;;;;;5034232;28;20044;-68
2023/09/13 10:50:16;;;;;;;8.43;2.20;;;17.00;99.90;;;;;;5033369;28;20080;-68
2023/09/13 10:52:44;;;;;;;8.52;2.63;;;17.10;99.90;;;;;;5034190;28;20052;-68
2023/09/13 10:55:11;;;;;;;8.13;2.45;;;17.20;99.90;;;;;;5051696;28;20049;-69
2023/09/13 10:57:39;;;;;;;14.27;2.78;;;17.20;99.90;;;;;;5032875;28;20049;-69
2023/09/13 11:00:11;;;;;;;5.97;2.22;;;17.20;99.90;;;;;;5034389;28;20053;-68
2023/09/13 11:02:42;;;;;;;7.10;1.98;;;17.10;99.90;;;;;;5016947;28;20044;-69
2023/09/13 11:05:09;;;;;;;11.23;2.60;;;17.20;99.90;;;;;;5017549;28;20497;-68
2023/09/13 11:07:46;;;;;;;7.32;2.47;;;17.30;99.90;;;;;;5016957;28;20416;-68
2023/09/13 11:10:20;;;;;;;6.65;2.38;;;17.30;99.90;;;;;;5033431;28;20044;-67
2023/09/13 11:12:48;;;;;;;5.47;2.03;;;17.30;99.90;;;;;;5033813;28;20044;-67
2023/09/13 11:15:20;;;;;;;5.40;1.85;;;17.40;99.90;;;;;;5033899;28;20428;-65
2023/09/13 11:17:46;;;;;;;8.98;2.03;;;17.40;99.90;;;;;;5040243;28;20083;-66
2023/09/13 11:20:27;;;;;;;6.60;2.20;;;17.40;99.90;;;;;;5030477;28;20084;-66
2023/09/13 11:23:14;;;;;;;6.25;2.03;;;17.40;99.90;;;;;;5033093;28;20045;-66
2023/09/13 11:25:52;;;;;;;9.73;2.58;;;17.50;99.90;;;;;;5033384;28;20040;-66
2023/09/13 11:28:29;;;;;;;8.20;2.63;;;17.70;99.90;;;;;;5015240;28;20103;-66
2023/09/13 11:31:01;;;;;;;6.88;2.03;;;17.80;99.90;;;;;;5024152;28;20374;-67
2023/09/13 11:33:31;;;;;;;8.30;2.13;;;17.90;99.90;;;;;;5034990;28;20051;-70
2023/09/13 11:35:58;;;;;;;4.95;2.15;;;17.80;99.90;;;;;;5035478;28;20363;-66
2023/09/13 11:38:25;;;;;;;9.02;2.22;;;17.80;99.90;;;;;;5034196;28;20048;-67
2023/09/13 11:40:55;;;;;;;7.53;2.00;;;17.80;99.90;;;;;;5052704;28;20044;-68
2023/09/13 11:43:25;;;;;;;8.43;2.22;;;17.70;99.90;;;;;;5034655;28;20103;-66
2023/09/13 11:45:55;;;;;;;8.77;2.03;;;17.60;99.90;;;;;;5031686;28;20048;-68
2023/09/13 11:48:39;;;;;;;7.60;2.20;;;17.60;99.90;;;;;;5034524;28;20049;-66
2023/09/13 11:51:16;;;;;;;6.00;1.80;;;17.40;99.90;;;;;;5052657;28;20402;-66
2023/09/13 11:53:42;;;;;;;6.00;1.80;;;17.20;99.90;;;;;;5051608;28;20037;-66
2023/09/13 11:56:29;;;;;;;5.28;1.98;;;17.00;99.90;;;;;;5034279;28;20089;-66
2023/09/13 11:59:01;;;;;;;12.13;2.25;;;16.90;99.90;;;;;;5032641;28;20498;-66
2023/09/13 12:01:28;;;;;;;6.18;1.83;;;16.80;99.90;;;;;;5050905;28;20556;-66
2023/09/13 12:03:53;;;;;;;4.55;1.23;;;16.80;99.90;;;;;;5052616;28;20095;-66
2023/09/13 12:06:19;;;;;;;6.53;1.80;;;16.80;99.90;;;;;;5033132;28;20033;-66
2023/09/13 12:08:47;;;;;;;5.68;1.83;;;16.90;99.90;;;;;;5037083;28;20052;-65
2023/09/13 12:11:13;;;;;;;5.60;1.75;;;16.90;99.90;;;;;;5054323;28;20052;-68
2023/09/13 12:13:46;;;;;;;5.32;1.77;;;17.00;99.90;;;;;;5035168;28;20053;-65
2023/09/13 12:16:13;;;;;;;8.48;1.85;;;17.00;99.90;;;;;;5020665;28;20040;-65
2023/09/13 12:18:40;;;;;;;6.75;1.60;;;17.10;99.90;;;;;;5036716;28;20121;-65
2023/09/13 12:21:07;;;;;;;8.68;2.03;;;17.30;99.90;;;;;;5035224;28;20040;-68
2023/09/13 12:23:40;;;;;;;15.23;3.05;;;17.60;99.90;;;;;;5054237;28;20048;-66
2023/09/13 12:26:08;;;;;;;11.30;2.25;;;17.80;99.90;;;;;;5035933;28;20029;-69
2023/09/13 12:28:36;;;;;;;8.98;2.42;;;17.70;99.90;;;;;;5035384;28;20052;-69
2023/09/13 12:31:06;;;;;;;8.82;2.22;;;17.60;99.90;;;;;;5037189;28;20049;-69
2023/09/13 12:33:34;;;;;;;13.27;2.80;;;17.60;99.90;;;;;;5036320;28;20498;-69
2023/09/13 12:36:03;;;;;;;6.43;1.58;;;17.60;99.90;;;;;;5035575;28;20056;-69
2023/09/13 12:38:42;;;;;;;8.15;2.05;;;17.70;99.90;;;;;;5035540;28;20044;-69
2023/09/13 12:41:09;;;;;;;8.93;3.33;;;17.90;99.90;;;;;;5019451;28;20520;-70
2023/09/13 12:43:39;;;;;;;16.40;3.42;;;17.90;99.90;;;;;;5036193;28;20056;-70
2023/09/13 12:46:06;;;;;;;10.57;2.75;;;17.90;99.90;;;;;;5035841;28;20033;-70